sensor_id;sensor_type;location;lat;lon;timestamp;pressure;altitude;pressure_sealevel;temperature;humidity
23574;BME280;11965;53.640;10.050;2022-07-29T00:00:14;101877.00;;;14.65;73.14
23574;BME280;11965;53.640;10.050;2022-07-29T00:02:39;101880.97;;;14.55;73.93
23574;BME280;11965;53.640;10.050;2022-07-29T00:05:05;101869.47;;;14.50;73.50
23574;BME280;11965;53.640;10.050;2022-07-29T00:07:30;101870.50;;;14.43;74.49
23574;BME280;11965;53.640;10.050;2022-07-29T00:09:56;101870.50;;;14.43;74.01
23574;BME280;11965;53.640;10.050;2022-07-29T00:12:23;101872.03;;;14.30;74.98
23574;BME280;11965;53.640;10.050;2022-07-29T00:14:50;101870.09;;;14.31;74.78
23574;BME280;11965;53.640;10.050;2022-07-29T00:17:15;101870.97;;;14.31;74.60
23574;BME280;11965;53.640;10.050;2022-07-29T00:19:41;101867.25;;;14.24;74.67
23574;BME280;11965;53.640;10.050;2022-07-29T00:22:06;101855.81;;;14.19;75.32
23574;BME280;11965;53.640;10.050;2022-07-29T00:24:32;101865.22;;;14.18;74.75
23574;BME280;11965;53.640;10.050;2022-07-29T00:26:57;101862.34;;;14.11;75.79
23574;BME280;11965;53.640;10.050;2022-07-29T00:29:24;101859.44;;;14.05;76.23
23574;BME280;11965;53.640;10.050;2022-07-29T00:31:49;101866.00;;;13.97;76.23
23574;BME280;11965;53.640;10.050;2022-07-29T00:34:15;101865.31;;;14.10;75.43
23574;BME280;11965;53.640;10.050;2022-07-29T00:36:59;101859.19;;;14.00;76.29
23574;BME280;11965;53.640;10.050;2022-07-29T00:39:25;101859.38;;;13.98;75.81
23574;BME280;11965;53.640;10.050;2022-07-29T00:41:50;101863.09;;;13.90;76.63
23574;BME280;11965;53.640;10.050;2022-07-29T00:44:16;101860.41;;;13.82;77.06
23574;BME280;11965;53.640;10.050;2022-07-29T00:46:41;101851.59;;;13.79;76.85
23574;BME280;11965;53.640;10.050;2022-07-29T00:49:07;101853.31;;;13.80;76.77
23574;BME280;11965;53.640;10.050;2022-07-29T00:51:35;101851.59;;;13.79;76.72
23574;BME280;11965;53.640;10.050;2022-07-29T00:54:02;101852.84;;;13.76;76.25
23574;BME280;11965;53.640;10.050;2022-07-29T00:56:30;101858.78;;;13.73;76.42
23574;BME280;11965;53.640;10.050;2022-07-29T00:58:57;101854.06;;;13.74;76.36
23574;BME280;11965;53.640;10.050;2022-07-29T01:01:22;101843.59;;;13.61;77.29
23574;BME280;11965;53.640;10.050;2022-07-29T01:03:48;101849.53;;;13.58;77.63
23574;BME280;11965;53.640;10.050;2022-07-29T01:06:18;101842.91;;;13.59;77.77
23574;BME280;11965;53.640;10.050;2022-07-29T01:08:45;101835.63;;;13.58;77.61
23574;BME280;11965;53.640;10.050;2022-07-29T01:11:13;101838.03;;;13.61;77.32
23574;BME280;11965;53.640;10.050;2022-07-29T01:13:39;101840.50;;;13.56;78.20
23574;BME280;11965;53.640;10.050;2022-07-29T01:16:29;101833.50;;;13.60;77.62
23574;BME280;11965;53.640;10.050;2022-07-29T01:19:01;101842.31;;;13.48;78.19
23574;BME280;11965;53.640;10.050;2022-07-29T01:21:50;101826.59;;;13.56;77.06
23574;BME280;11965;53.640;10.050;2022-07-29T01:24:33;101833.78;;;13.50;77.93
23574;BME280;11965;53.640;10.050;2022-07-29T01:30:05;101829.94;;;13.51;77.53
23574;BME280;11965;53.640;10.050;2022-07-29T01:32:35;101828.38;;;13.48;77.54
23574;BME280;11965;53.640;10.050;2022-07-29T01:35:17;101826.09;;;13.52;78.40
23574;BME280;11965;53.640;10.050;2022-07-29T01:37:51;101820.91;;;13.49;78.28
23574;BME280;11965;53.640;10.050;2022-07-29T01:40:28;101821.69;;;13.58;77.06
23574;BME280;11965;53.640;10.050;2022-07-29T01:42:58;101816.00;;;13.51;77.84
23574;BME280;11965;53.640;10.050;2022-07-29T01:48:05;101812.34;;;13.51;77.37
23574;BME280;11965;53.640;10.050;2022-07-29T01:50:38;101805.94;;;13.50;77.26
23574;BME280;11965;53.640;10.050;2022-07-29T01:53:10;101801.72;;;13.54;77.39
23574;BME280;11965;53.640;10.050;2022-07-29T01:55:43;101807.28;;;13.54;77.11
23574;BME280;11965;53.640;10.050;2022-07-29T01:58:10;101807.16;;;13.47;77.26
23574;BME280;11965;53.640;10.050;2022-07-29T02:00:37;101804.00;;;13.51;77.36
23574;BME280;11965;53.640;10.050;2022-07-29T02:03:09;101804.84;;;13.51;77.17
23574;BME280;11965;53.640;10.050;2022-07-29T02:05:37;101807.66;;;13.51;77.39
23574;BME280;11965;53.640;10.050;2022-07-29T02:08:05;101794.13;;;13.63;76.57
23574;BME280;11965;53.640;10.050;2022-07-29T02:10:33;101779.03;;;13.57;77.03
23574;BME280;11965;53.640;10.050;2022-07-29T02:13:00;101782.31;;;13.61;76.72
23574;BME280;11965;53.640;10.050;2022-07-29T02:15:29;101776.56;;;13.62;76.24
23574;BME280;11965;53.640;10.050;2022-07-29T02:18:01;101782.69;;;13.58;76.98
23574;BME280;11965;53.640;10.050;2022-07-29T02:20:28;101778.66;;;13.60;76.40
23574;BME280;11965;53.640;10.050;2022-07-29T02:22:55;101785.97;;;13.46;76.15
23574;BME280;11965;53.640;10.050;2022-07-29T02:25:22;101787.41;;;13.57;76.91
23574;BME280;11965;53.640;10.050;2022-07-29T02:27:50;101776.84;;;13.67;76.34
23574;BME280;11965;53.640;10.050;2022-07-29T02:30:17;101773.16;;;13.67;76.08
23574;BME280;11965;53.640;10.050;2022-07-29T02:32:44;101770.59;;;13.65;75.57
23574;BME280;11965;53.640;10.050;2022-07-29T02:35:12;101777.09;;;13.73;75.94
23574;BME280;11965;53.640;10.050;2022-07-29T02:37:38;101771.53;;;13.73;76.66
23574;BME280;11965;53.640;10.050;2022-07-29T02:40:08;101770.38;;;13.67;76.94
23574;BME280;11965;53.640;10.050;2022-07-29T02:42:36;101771.16;;;13.76;75.41
23574;BME280;11965;53.640;10.050;2022-07-29T02:45:03;101770.50;;;13.74;76.21
23574;BME280;11965;53.640;10.050;2022-07-29T02:47:46;101771.16;;;13.76;76.15
23574;BME280;11965;53.640;10.050;2022-07-29T02:50:22;101768.63;;;13.81;74.56
23574;BME280;11965;53.640;10.050;2022-07-29T02:52:57;101768.38;;;13.76;75.79
23574;BME280;11965;53.640;10.050;2022-07-29T02:55:40;101758.84;;;13.70;76.97
23574;BME280;11965;53.640;10.050;2022-07-29T02:58:15;101764.06;;;13.73;77.49
23574;BME280;11965;53.640;10.050;2022-07-29T03:00:46;101761.34;;;13.80;76.90
23574;BME280;11965;53.640;10.050;2022-07-29T03:03:15;101758.56;;;13.80;75.62
23574;BME280;11965;53.640;10.050;2022-07-29T03:05:43;101760.84;;;13.91;76.13
23574;BME280;11965;53.640;10.050;2022-07-29T03:08:11;101759.25;;;13.82;76.48
23574;BME280;11965;53.640;10.050;2022-07-29T03:10:39;101760.56;;;13.86;76.42
23574;BME280;11965;53.640;10.050;2022-07-29T03:13:07;101752.88;;;13.88;76.22
23574;BME280;11965;53.640;10.050;2022-07-29T03:15:34;101756.13;;;13.91;75.81
23574;BME280;11965;53.640;10.050;2022-07-29T03:18:01;101753.28;;;13.85;76.46
23574;BME280;11965;53.640;10.050;2022-07-29T03:20:27;101761.72;;;13.91;76.78
23574;BME280;11965;53.640;10.050;2022-07-29T03:22:52;101759.41;;;13.95;76.05
23574;BME280;11965;53.640;10.050;2022-07-29T03:25:20;101753.06;;;14.01;75.40
23574;BME280;11965;53.640;10.050;2022-07-29T03:27:46;101756.22;;;13.98;76.21
23574;BME280;11965;53.640;10.050;2022-07-29T03:30:12;101753.16;;;14.08;75.78
23574;BME280;11965;53.640;10.050;2022-07-29T03:32:38;101758.22;;;14.04;75.54
23574;BME280;11965;53.640;10.050;2022-07-29T03:35:05;101750.53;;;14.06;76.01
23574;BME280;11965;53.640;10.050;2022-07-29T03:37:30;101748.56;;;14.00;76.56
23574;BME280;11965;53.640;10.050;2022-07-29T03:39:57;101755.03;;;14.07;75.97
23574;BME280;11965;53.640;10.050;2022-07-29T03:42:25;101744.56;;;14.09;76.81
23574;BME280;11965;53.640;10.050;2022-07-29T03:44:52;101747.19;;;14.11;76.69
23574;BME280;11965;53.640;10.050;2022-07-29T03:47:23;101749.09;;;14.10;76.33
23574;BME280;11965;53.640;10.050;2022-07-29T03:49:52;101744.84;;;14.14;75.85
23574;BME280;11965;53.640;10.050;2022-07-29T03:52:19;101744.44;;;14.18;75.11
23574;BME280;11965;53.640;10.050;2022-07-29T03:54:46;101749.16;;;14.17;76.15
23574;BME280;11965;53.640;10.050;2022-07-29T03:57:12;101748.59;;;14.22;75.82
23574;BME280;11965;53.640;10.050;2022-07-29T03:59:39;101747.97;;;14.26;75.59
23574;BME280;11965;53.640;10.050;2022-07-29T04:02:09;101744.41;;;14.32;75.10
23574;BME280;11965;53.640;10.050;2022-07-29T04:04:36;101740.66;;;14.40;73.81
23574;BME280;11965;53.640;10.050;2022-07-29T04:07:02;101742.66;;;14.31;74.08
23574;BME280;11965;53.640;10.050;2022-07-29T04:09:27;101738.72;;;14.41;74.39
23574;BME280;11965;53.640;10.050;2022-07-29T04:11:53;101745.22;;;14.48;74.38
23574;BME280;11965;53.640;10.050;2022-07-29T04:14:19;101749.75;;;14.49;74.53
23574;BME280;11965;53.640;10.050;2022-07-29T04:16:45;101750.69;;;14.56;74.19
23574;BME280;11965;53.640;10.050;2022-07-29T04:19:11;101750.69;;;14.56;74.81
23574;BME280;11965;53.640;10.050;2022-07-29T04:21:38;101743.84;;;14.58;74.63
23574;BME280;11965;53.640;10.050;2022-07-29T04:24:04;101749.91;;;14.62;74.06
23574;BME280;11965;53.640;10.050;2022-07-29T04:26:30;101750.19;;;14.67;74.26
23574;BME280;11965;53.640;10.050;2022-07-29T04:28:55;101744.47;;;14.75;74.12
23574;BME280;11965;53.640;10.050;2022-07-29T04:31:21;101747.03;;;14.77;74.12
23574;BME280;11965;53.640;10.050;2022-07-29T04:33:46;101740.66;;;14.83;74.12
23574;BME280;11965;53.640;10.050;2022-07-29T04:36:13;101741.25;;;14.78;74.52
23574;BME280;11965;53.640;10.050;2022-07-29T04:38:39;101745.19;;;14.84;74.51
23574;BME280;11965;53.640;10.050;2022-07-29T04:41:04;101746.28;;;14.90;74.22
23574;BME280;11965;53.640;10.050;2022-07-29T04:43:32;101745.88;;;14.93;73.52
23574;BME280;11965;53.640;10.050;2022-07-29T04:45:58;101743.09;;;14.93;74.27
23574;BME280;11965;53.640;10.050;2022-07-29T04:48:24;101746.16;;;14.98;74.37
23574;BME280;11965;53.640;10.050;2022-07-29T04:50:49;101747.00;;;14.98;74.18
23574;BME280;11965;53.640;10.050;2022-07-29T04:53:15;101746.38;;;14.96;74.43
23574;BME280;11965;53.640;10.050;2022-07-29T04:55:40;101750.06;;;15.03;73.79
23574;BME280;11965;53.640;10.050;2022-07-29T04:58:06;101755.03;;;15.08;73.89
23574;BME280;11965;53.640;10.050;2022-07-29T05:00:32;101754.81;;;15.10;74.10
23574;BME280;11965;53.640;10.050;2022-07-29T05:02:58;101748.44;;;15.16;74.77
23574;BME280;11965;53.640;10.050;2022-07-29T05:05:23;101748.03;;;15.19;75.24
23574;BME280;11965;53.640;10.050;2022-07-29T05:07:49;101740.97;;;15.23;75.48
23574;BME280;11965;53.640;10.050;2022-07-29T05:10:14;101745.75;;;15.29;74.63
23574;BME280;11965;53.640;10.050;2022-07-29T05:12:40;101741.94;;;15.37;74.83
23574;BME280;11965;53.640;10.050;2022-07-29T05:15:06;101743.91;;;15.43;73.93
23574;BME280;11965;53.640;10.050;2022-07-29T05:17:32;101748.84;;;15.41;70.82
23574;BME280;11965;53.640;10.050;2022-07-29T05:19:57;101746.09;;;15.48;71.62
23574;BME280;11965;53.640;10.050;2022-07-29T05:22:23;101747.19;;;15.53;72.98
23574;BME280;11965;53.640;10.050;2022-07-29T05:24:49;101751.00;;;15.45;70.51
23574;BME280;11965;53.640;10.050;2022-07-29T05:27:14;101754.22;;;15.42;70.21
23574;BME280;11965;53.640;10.050;2022-07-29T05:29:40;101764.22;;;15.30;70.43
23574;BME280;11965;53.640;10.050;2022-07-29T05:32:06;101767.63;;;15.54;71.34
23574;BME280;11965;53.640;10.050;2022-07-29T05:34:32;101760.16;;;15.67;71.63
23574;BME280;11965;53.640;10.050;2022-07-29T05:36:57;101753.44;;;15.90;70.58
23574;BME280;11965;53.640;10.050;2022-07-29T05:39:24;101758.50;;;15.73;69.54
23574;BME280;11965;53.640;10.050;2022-07-29T05:41:49;101751.13;;;16.00;69.82
23574;BME280;11965;53.640;10.050;2022-07-29T05:44:15;101753.97;;;16.07;70.14
23574;BME280;11965;53.640;10.050;2022-07-29T05:46:41;101757.22;;;16.24;69.28
23574;BME280;11965;53.640;10.050;2022-07-29T05:49:06;101751.22;;;16.20;67.71
23574;BME280;11965;53.640;10.050;2022-07-29T05:51:33;101762.78;;;16.17;69.49
23574;BME280;11965;53.640;10.050;2022-07-29T05:53:59;101757.25;;;16.30;69.97
23574;BME280;11965;53.640;10.050;2022-07-29T05:56:25;101769.34;;;16.44;68.86
23574;BME280;11965;53.640;10.050;2022-07-29T05:58:52;101767.84;;;16.42;67.94
23574;BME280;11965;53.640;10.050;2022-07-29T06:01:17;101763.56;;;16.52;68.42
23574;BME280;11965;53.640;10.050;2022-07-29T06:03:43;101772.47;;;16.89;68.79
23574;BME280;11965;53.640;10.050;2022-07-29T06:06:09;101772.88;;;16.86;67.27
23574;BME280;11965;53.640;10.050;2022-07-29T06:08:35;101757.63;;;16.82;66.56
23574;BME280;11965;53.640;10.050;2022-07-29T06:11:03;101763.00;;;16.90;66.85
23574;BME280;11965;53.640;10.050;2022-07-29T06:13:29;101764.28;;;17.14;69.68
23574;BME280;11965;53.640;10.050;2022-07-29T06:15:55;101757.59;;;17.29;67.26
23574;BME280;11965;53.640;10.050;2022-07-29T06:18:20;101750.22;;;17.54;64.33
23574;BME280;11965;53.640;10.050;2022-07-29T06:20:49;101750.84;;;17.56;65.39
23574;BME280;11965;53.640;10.050;2022-07-29T06:23:15;101759.94;;;17.52;63.69
23574;BME280;11965;53.640;10.050;2022-07-29T06:25:40;101758.44;;;17.49;63.93
23574;BME280;11965;53.640;10.050;2022-07-29T06:28:08;101758.44;;;17.49;64.50
23574;BME280;11965;53.640;10.050;2022-07-29T06:30:33;101753.91;;;17.48;65.29
23574;BME280;11965;53.640;10.050;2022-07-29T06:32:59;101743.72;;;17.67;65.51
23574;BME280;11965;53.640;10.050;2022-07-29T06:35:25;101749.88;;;18.02;66.96
23574;BME280;11965;53.640;10.050;2022-07-29T06:37:51;101753.97;;;18.06;63.89
23574;BME280;11965;53.640;10.050;2022-07-29T06:40:17;101754.16;;;18.12;63.17
23574;BME280;11965;53.640;10.050;2022-07-29T06:43:01;101746.31;;;18.27;63.72
23574;BME280;11965;53.640;10.050;2022-07-29T06:45:26;101753.06;;;18.19;61.76
23574;BME280;11965;53.640;10.050;2022-07-29T06:47:52;101747.97;;;18.41;62.40
23574;BME280;11965;53.640;10.050;2022-07-29T06:50:17;101751.84;;;18.40;61.81
23574;BME280;11965;53.640;10.050;2022-07-29T06:52:42;101745.22;;;18.28;61.77
23574;BME280;11965;53.640;10.050;2022-07-29T06:55:08;101746.06;;;18.35;61.07
23574;BME280;11965;53.640;10.050;2022-07-29T06:57:35;101747.22;;;18.59;61.37
23574;BME280;11965;53.640;10.050;2022-07-29T07:00:00;101745.50;;;18.90;60.88
23574;BME280;11965;53.640;10.050;2022-07-29T07:02:27;101729.34;;;19.10;60.32
23574;BME280;11965;53.640;10.050;2022-07-29T07:04:52;101731.13;;;19.23;59.22
23574;BME280;11965;53.640;10.050;2022-07-29T07:07:18;101730.38;;;19.16;59.26
23574;BME280;11965;53.640;10.050;2022-07-29T07:09:44;101730.31;;;19.41;58.18
23574;BME280;11965;53.640;10.050;2022-07-29T07:12:10;101739.00;;;19.58;58.75
23574;BME280;11965;53.640;10.050;2022-07-29T07:14:35;101738.78;;;19.59;58.56
23574;BME280;11965;53.640;10.050;2022-07-29T07:17:01;101738.56;;;19.79;58.60
23574;BME280;11965;53.640;10.050;2022-07-29T07:19:29;101732.09;;;19.79;57.25
23574;BME280;11965;53.640;10.050;2022-07-29T07:21:54;101725.69;;;19.90;57.89
23574;BME280;11965;53.640;10.050;2022-07-29T07:24:21;101724.25;;;20.18;57.53
23574;BME280;11965;53.640;10.050;2022-07-29T07:26:47;101724.97;;;20.13;57.53
23574;BME280;11965;53.640;10.050;2022-07-29T07:29:12;101723.09;;;20.37;57.48
23574;BME280;11965;53.640;10.050;2022-07-29T07:31:39;101724.81;;;20.38;55.51
23574;BME280;11965;53.640;10.050;2022-07-29T07:34:04;101723.63;;;20.46;56.75
23574;BME280;11965;53.640;10.050;2022-07-29T07:36:30;101718.19;;;20.33;55.21
23574;BME280;11965;53.640;10.050;2022-07-29T07:38:55;101709.28;;;20.17;55.77
23574;BME280;11965;53.640;10.050;2022-07-29T07:41:21;101717.47;;;20.07;56.23
23574;BME280;11965;53.640;10.050;2022-07-29T07:43:46;101716.34;;;20.26;57.20
23574;BME280;11965;53.640;10.050;2022-07-29T07:46:13;101720.19;;;20.14;54.77
23574;BME280;11965;53.640;10.050;2022-07-29T07:48:39;101715.72;;;20.06;55.50
23574;BME280;11965;53.640;10.050;2022-07-29T07:51:05;101717.88;;;20.22;56.76
23574;BME280;11965;53.640;10.050;2022-07-29T07:53:33;101712.75;;;20.19;57.69
23574;BME280;11965;53.640;10.050;2022-07-29T07:55:59;101712.59;;;20.44;57.65
23574;BME280;11965;53.640;10.050;2022-07-29T07:58:25;101714.25;;;20.03;54.75
23574;BME280;11965;53.640;10.050;2022-07-29T08:00:51;101716.50;;;20.43;56.39
23574;BME280;11965;53.640;10.050;2022-07-29T08:03:17;101717.81;;;20.59;56.89
23574;BME280;11965;53.640;10.050;2022-07-29T08:05:42;101705.59;;;20.65;57.05
23574;BME280;11965;53.640;10.050;2022-07-29T08:08:08;101717.50;;;20.49;56.99
23574;BME280;11965;53.640;10.050;2022-07-29T08:10:35;101719.56;;;20.72;56.57
23574;BME280;11965;53.640;10.050;2022-07-29T08:13:21;101713.31;;;20.70;53.08
23574;BME280;11965;53.640;10.050;2022-07-29T08:15:48;101718.38;;;21.03;53.94
23574;BME280;11965;53.640;10.050;2022-07-29T08:18:28;101717.75;;;20.89;54.05
23574;BME280;11965;53.640;10.050;2022-07-29T08:20:55;101718.72;;;20.71;52.55
23574;BME280;11965;53.640;10.050;2022-07-29T08:23:21;101710.69;;;20.99;55.67
23574;BME280;11965;53.640;10.050;2022-07-29T08:25:49;101726.81;;;20.80;52.58
23574;BME280;11965;53.640;10.050;2022-07-29T08:28:14;101719.50;;;21.02;54.47
23574;BME280;11965;53.640;10.050;2022-07-29T08:30:40;101712.91;;;21.32;52.09
23574;BME280;11965;53.640;10.050;2022-07-29T08:33:05;101721.97;;;21.10;52.56
23574;BME280;11965;53.640;10.050;2022-07-29T08:35:31;101711.69;;;21.51;53.95
23574;BME280;11965;53.640;10.050;2022-07-29T08:37:56;101705.78;;;21.76;53.60
23574;BME280;11965;53.640;10.050;2022-07-29T08:40:22;101714.00;;;21.66;52.19
23574;BME280;11965;53.640;10.050;2022-07-29T08:42:51;101707.13;;;21.74;52.43
23574;BME280;11965;53.640;10.050;2022-07-29T08:45:17;101711.94;;;22.02;53.66
23574;BME280;11965;53.640;10.050;2022-07-29T08:47:44;101714.41;;;21.98;52.10
23574;BME280;11965;53.640;10.050;2022-07-29T08:50:12;101714.25;;;22.05;50.45
23574;BME280;11965;53.640;10.050;2022-07-29T08:52:41;101715.84;;;22.13;50.41
23574;BME280;11965;53.640;10.050;2022-07-29T08:55:09;101707.63;;;22.11;48.92
23574;BME280;11965;53.640;10.050;2022-07-29T08:57:35;101705.44;;;22.42;51.19
23574;BME280;11965;53.640;10.050;2022-07-29T09:00:03;101704.72;;;22.35;47.89
23574;BME280;11965;53.640;10.050;2022-07-29T09:02:34;101699.19;;;22.57;51.56
23574;BME280;11965;53.640;10.050;2022-07-29T09:05:02;101699.28;;;22.45;49.97
23574;BME280;11965;53.640;10.050;2022-07-29T09:07:28;101702.22;;;22.67;50.20
23574;BME280;11965;53.640;10.050;2022-07-29T09:09:54;101703.44;;;22.54;48.17
23574;BME280;11965;53.640;10.050;2022-07-29T09:12:20;101690.28;;;22.48;47.76
23574;BME280;11965;53.640;10.050;2022-07-29T09:14:48;101690.72;;;22.57;48.79
23574;BME280;11965;53.640;10.050;2022-07-29T09:17:14;101694.69;;;22.72;47.65
23574;BME280;11965;53.640;10.050;2022-07-29T09:19:41;101688.56;;;23.09;49.13
23574;BME280;11965;53.640;10.050;2022-07-29T09:22:07;101687.88;;;23.02;49.80
23574;BME280;11965;53.640;10.050;2022-07-29T09:27:00;101693.69;;;22.96;45.22
23574;BME280;11965;53.640;10.050;2022-07-29T09:29:26;101692.06;;;23.00;46.41
23574;BME280;11965;53.640;10.050;2022-07-29T09:31:54;101691.63;;;22.91;46.49
23574;BME280;11965;53.640;10.050;2022-07-29T09:34:27;101677.81;;;23.28;45.99
23574;BME280;11965;53.640;10.050;2022-07-29T09:36:57;101684.03;;;23.47;48.21
23574;BME280;11965;53.640;10.050;2022-07-29T09:41:57;101674.69;;;23.08;47.61
23574;BME280;11965;53.640;10.050;2022-07-29T09:44:25;101680.78;;;23.17;46.93
23574;BME280;11965;53.640;10.050;2022-07-29T09:46:59;101683.34;;;23.01;46.65
23574;BME280;11965;53.640;10.050;2022-07-29T09:49:27;101682.47;;;22.84;45.38
23574;BME280;11965;53.640;10.050;2022-07-29T09:52:05;101682.63;;;22.94;46.67
23574;BME280;11965;53.640;10.050;2022-07-29T09:54:31;101679.91;;;23.16;47.66
23574;BME280;11965;53.640;10.050;2022-07-29T09:57:04;101680.78;;;23.17;43.58
23574;BME280;11965;53.640;10.050;2022-07-29T09:59:30;101681.38;;;23.57;46.27
23574;BME280;11965;53.640;10.050;2022-07-29T10:01:56;101679.44;;;23.41;44.04
23574;BME280;11965;53.640;10.050;2022-07-29T10:04:22;101676.28;;;23.76;43.42
23574;BME280;11965;53.640;10.050;2022-07-29T10:06:58;101679.28;;;23.70;42.13
23574;BME280;11965;53.640;10.050;2022-07-29T10:09:25;101677.41;;;23.58;42.20
23574;BME280;11965;53.640;10.050;2022-07-29T10:12:12;101676.66;;;23.85;46.02
23574;BME280;11965;53.640;10.050;2022-07-29T10:14:42;101678.31;;;23.81;42.39
23574;BME280;11965;53.640;10.050;2022-07-29T10:17:09;101681.22;;;23.69;40.87
23574;BME280;11965;53.640;10.050;2022-07-29T10:19:36;101671.28;;;23.67;41.34
23574;BME280;11965;53.640;10.050;2022-07-29T10:22:05;101673.81;;;23.85;43.14
23574;BME280;11965;53.640;10.050;2022-07-29T10:24:31;101673.44;;;23.76;41.75
23574;BME280;11965;53.640;10.050;2022-07-29T10:26:59;101669.91;;;23.69;43.21
23574;BME280;11965;53.640;10.050;2022-07-29T10:29:25;101666.97;;;24.03;40.63
23574;BME280;11965;53.640;10.050;2022-07-29T10:32:26;101657.84;;;24.23;42.19
23574;BME280;11965;53.640;10.050;2022-07-29T10:43:43;101651.97;;;24.02;41.89
23574;BME280;11965;53.640;10.050;2022-07-29T10:46:11;101652.66;;;24.15;39.99
23574;BME280;11965;53.640;10.050;2022-07-29T10:52:01;101654.13;;;24.44;40.08
23574;BME280;11965;53.640;10.050;2022-07-29T11:00:30;101652.09;;;24.67;38.46
23574;BME280;11965;53.640;10.050;2022-07-29T11:05:13;101649.81;;;25.01;39.52
23574;BME280;11965;53.640;10.050;2022-07-29T11:10:43;101644.53;;;24.78;38.37
23574;BME280;11965;53.640;10.050;2022-07-29T11:13:09;101647.41;;;24.83;39.37
23574;BME280;11965;53.640;10.050;2022-07-29T11:15:55;101651.34;;;24.82;39.78
23574;BME280;11965;53.640;10.050;2022-07-29T11:18:22;101650.94;;;25.00;38.08
23574;BME280;11965;53.640;10.050;2022-07-29T11:20:50;101652.44;;;25.13;37.57
23574;BME280;11965;53.640;10.050;2022-07-29T11:23:26;101639.84;;;25.36;38.00
23574;BME280;11965;53.640;10.050;2022-07-29T11:31:17;101643.00;;;25.02;37.95
23574;BME280;11965;53.640;10.050;2022-07-29T11:33:44;101642.03;;;25.19;36.62
23574;BME280;11965;53.640;10.050;2022-07-29T11:36:14;101641.53;;;25.32;37.94
23574;BME280;11965;53.640;10.050;2022-07-29T11:38:40;101644.13;;;25.39;37.82
23574;BME280;11965;53.640;10.050;2022-07-29T11:41:27;101639.34;;;25.44;38.02
23574;BME280;11965;53.640;10.050;2022-07-29T11:43:59;101633.03;;;25.90;36.63
23574;BME280;11965;53.640;10.050;2022-07-29T11:46:44;101622.63;;;26.31;36.50
23574;BME280;11965;53.640;10.050;2022-07-29T11:49:25;101624.09;;;26.85;35.95
23574;BME280;11965;53.640;10.050;2022-07-29T11:51:52;101617.56;;;26.84;34.37
23574;BME280;11965;53.640;10.050;2022-07-29T11:54:24;101622.06;;;26.29;35.28
23574;BME280;11965;53.640;10.050;2022-07-29T11:56:51;101617.78;;;26.21;33.22
23574;BME280;11965;53.640;10.050;2022-07-29T11:59:17;101612.13;;;26.42;34.43
23574;BME280;11965;53.640;10.050;2022-07-29T12:01:57;101610.44;;;26.61;33.99
23574;BME280;11965;53.640;10.050;2022-07-29T12:04:24;101604.19;;;26.44;34.50
23574;BME280;11965;53.640;10.050;2022-07-29T12:06:50;101609.59;;;26.56;33.87
23574;BME280;11965;53.640;10.050;2022-07-29T12:09:17;101611.25;;;26.31;32.91
23574;BME280;11965;53.640;10.050;2022-07-29T12:11:43;101594.50;;;26.19;35.13
23574;BME280;11965;53.640;10.050;2022-07-29T12:14:09;101601.84;;;26.10;36.97
23574;BME280;11965;53.640;10.050;2022-07-29T12:16:37;101596.47;;;26.09;34.32
23574;BME280;11965;53.640;10.050;2022-07-29T12:19:04;101599.72;;;25.70;34.80
23574;BME280;11965;53.640;10.050;2022-07-29T12:21:49;101596.25;;;25.63;37.82
23574;BME280;11965;53.640;10.050;2022-07-29T12:24:15;101581.53;;;25.76;37.58
23574;BME280;11965;53.640;10.050;2022-07-29T12:26:56;101590.38;;;25.79;35.82
23574;BME280;11965;53.640;10.050;2022-07-29T12:29:23;101587.94;;;26.09;34.46
23574;BME280;11965;53.640;10.050;2022-07-29T12:31:53;101580.84;;;26.42;33.69
23574;BME280;11965;53.640;10.050;2022-07-29T12:34:23;101591.66;;;26.45;34.02
23574;BME280;11965;53.640;10.050;2022-07-29T12:36:49;101586.78;;;26.30;33.34
23574;BME280;11965;53.640;10.050;2022-07-29T12:39:18;101581.69;;;26.27;34.37
23574;BME280;11965;53.640;10.050;2022-07-29T12:41:44;101589.41;;;26.67;37.49
23574;BME280;11965;53.640;10.050;2022-07-29T12:44:11;101581.69;;;26.94;34.55
23574;BME280;11965;53.640;10.050;2022-07-29T12:46:36;101578.06;;;26.57;32.47
23574;BME280;11965;53.640;10.050;2022-07-29T12:49:02;101584.53;;;26.88;32.77
23574;BME280;11965;53.640;10.050;2022-07-29T12:51:35;101570.00;;;27.05;34.28
23574;BME280;11965;53.640;10.050;2022-07-29T12:56:33;101577.69;;;26.95;37.30
23574;BME280;11965;53.640;10.050;2022-07-29T12:58:59;101578.22;;;27.33;37.52
23574;BME280;11965;53.640;10.050;2022-07-29T13:01:24;101583.13;;;27.17;36.99
23574;BME280;11965;53.640;10.050;2022-07-29T13:03:57;101579.13;;;26.97;35.35
23574;BME280;11965;53.640;10.050;2022-07-29T13:06:44;101574.84;;;27.00;39.22
23574;BME280;11965;53.640;10.050;2022-07-29T13:09:19;101582.59;;;26.63;37.90
23574;BME280;11965;53.640;10.050;2022-07-29T13:11:52;101585.09;;;26.29;39.35
23574;BME280;11965;53.640;10.050;2022-07-29T13:14:31;101578.53;;;25.93;40.77
23574;BME280;11965;53.640;10.050;2022-07-29T13:19:36;101574.97;;;25.65;41.22
23574;BME280;11965;53.640;10.050;2022-07-29T13:22:01;101578.84;;;25.33;41.63
23574;BME280;11965;53.640;10.050;2022-07-29T13:24:27;101577.78;;;25.60;44.36
23574;BME280;11965;53.640;10.050;2022-07-29T13:26:53;101572.53;;;25.94;43.77
23574;BME280;11965;53.640;10.050;2022-07-29T13:29:18;101572.28;;;26.11;41.47